Lockhart, AL

12:21 AM CDT en Noviembre 01, 2014 (GMT -0500)
Florala | Change Station
CLOSE
Current Station
Aeropuerto
Location: Florala,
Altura: 315 ft
Estaciones meteorológicas cercanas
Aviso en curso: Freeze Watch

Alt 315 ft 31.04 °N, 86.31 °W | Updated 23 minutes ago

Nublado
Nublado
55 ° F
Sensación térmica 55 ° F
N
9
Viento Variable Viento desde Norte

Hoy
Alta -- | Baja -- ° F
--% Posibilidad de precipitaciones
Ayer
Alta -- | Baja -- ° F
Precip. -- pul
7:00 AM 5:56 PM
Gibosa creciente, 63% visible
Presión 30.07 pul
Visibilidad 10.0 Millas
Nubes Muy nublado 3900 ft
Muy nublado 4600 ft
Nublado 6000 ft
Punto de rocío 42 ° F
Humedad 62%
Precipitaciones 0.00 pul
Espesor de la nieve No disponible.
UV 0 de una escala de 12
Polen 3.00 de una escala de 12
Calidad del aire No disponible.
Flu Activity No disponible.
METAR K0J4 010458Z AUTO 35008KT 310V030 10SM BKN039 BKN046 OVC060 13/06 A3008 RMK AO2 SLP183 T01280056 402330061 $

More Conditions Fewer Conditions

Presión 30.07 pul
Visibilidad 10.0 Millas
Nubes Muy nublado 3900 ft
Muy nublado 4600 ft
Nublado 6000 ft
Punto de rocío 42 ° F
Humedad 62%
Precipitaciones 0.00 pul
Espesor de la nieve No disponible.
UV 0 de una escala de 12
Polen 3.00 de una escala de 12
Calidad del aire No disponible.
Flu Activity No disponible.
METAR K0J4 010458Z AUTO 35008KT 310V030 10SM BKN039 BKN046 OVC060 13/06 A3008 RMK AO2 SLP183 T01280056 402330061 $

More Conditions Fewer Conditions

10-Day Weather Forecast

Almanac

Astronomía

Nov. 01, 2014 Salida Puesta
Hora real
Crepúsculo civil
Crepúsculo náutico
Crepúsculo astronómico
Luna
Horas de luz
Horas de luz
Tomorrow will be .
, % of the Moon is Illuminated

Extremos de hoy

Máximos del estado Bajos del estado

Community

WunderPhotos

Upload Photos

1,766,858 ¡fotos cargadas!

WunderBlogs® & News

Nearby

Calidad del aire

  Calidad del aire Índice AQ Contaminante
Not available.

Grosos de nieve

Estación Profundido Altura

Actividad de terremotos

Ciudad Distance Mag. Tiempo y dato
Magnitud mínima muestra es 2,5.

Temperaturas de aguas costeras

Lugar Temperatura

Estaciones meteorológicas cercanas